Time;durP1;ratioP1;P1;durP2;ratioP2;P2;SDS_P1;SDS_P2;PMS_P1;PMS_P2;Temp;Humidity;BMP_temperature;BMP_pressure;BME280_temperature;BME280_humidity;BME280_pressure;Samples;Min_cycle;Max_cycle;Signal;HPM_P1;HPM_P2
2021/06/13 00:00:51;;;;;;;11.02;5.35;;;;;;;;;;5006568;28;20238;-67
2021/06/13 00:03:16;;;;;;;19.35;5.93;;;;;;;;;;4996408;28;20186;-66
2021/06/13 00:05:41;;;;;;;13.82;5.93;;;;;;;;;;5001507;28;20194;-66
2021/06/13 00:08:06;;;;;;;15.05;5.30;;;;;;;;;;4996910;28;21030;-66
2021/06/13 00:10:32;;;;;;;17.77;6.03;;;;;;;;;;5001433;28;20329;-67
2021/06/13 00:12:57;;;;;;;13.48;6.00;;;;;;;;;;4998194;28;20219;-67
2021/06/13 00:15:25;;;;;;;17.13;6.78;;;;;;;;;;5005218;28;20225;-67
2021/06/13 00:17:51;;;;;;;12.73;6.32;;;;;;;;;;5002109;28;20194;-67
2021/06/13 00:20:21;;;;;;;18.75;6.57;;;;;;;;;;4999431;28;20214;-67
2021/06/13 00:22:46;;;;;;;12.63;6.32;;;;;;;;;;4999351;28;20515;-67
2021/06/13 00:25:12;;;;;;;15.57;7.35;;;;;;;;;;4997410;28;20285;-67
2021/06/13 00:27:38;;;;;;;18.60;6.10;;;;;;;;;;4999628;28;20670;-67
2021/06/13 00:30:07;;;;;;;13.50;5.72;;;;;;;;;;4996771;28;20199;-67
2021/06/13 00:32:32;;;;;;;12.25;5.85;;;;;;;;;;5005095;28;20645;-67
2021/06/13 00:34:57;;;;;;;16.13;6.57;;;;;;;;;;5000726;28;20176;-67
2021/06/13 00:37:23;;;;;;;15.65;6.50;;;;;;;;;;4997846;28;20190;-67
2021/06/13 00:39:48;;;;;;;14.40;6.43;;;;;;;;;;4995640;28;20206;-67
2021/06/13 00:42:13;;;;;;;15.85;6.53;;;;;;;;;;4999798;28;20266;-67
2021/06/13 00:44:39;;;;;;;14.35;6.50;;;;;;;;;;4995660;28;20223;-67
2021/06/13 00:47:04;;;;;;;18.70;7.18;;;;;;;;;;4999621;28;20216;-67
2021/06/13 00:49:30;;;;;;;16.25;7.95;;;;;;;;;;5000206;28;20325;-67
2021/06/13 00:51:55;;;;;;;18.50;7.20;;;;;;;;;;4995873;28;20190;-67
2021/06/13 00:54:21;;;;;;;21.90;7.70;;;;;;;;;;5000683;28;20221;-67
2021/06/13 00:56:47;;;;;;;17.20;7.20;;;;;;;;;;4996715;28;20195;-67
2021/06/13 00:59:13;;;;;;;19.00;7.07;;;;;;;;;;4999040;28;20537;-67
2021/06/13 01:01:38;;;;;;;15.43;7.43;;;;;;;;;;4993588;28;20211;-67
2021/06/13 01:04:04;;;;;;;16.42;7.40;;;;;;;;;;5002131;28;20293;-67
2021/06/13 01:07:01;;;;;;;16.63;7.20;;;;;;;;;;4998352;28;20187;-67
2021/06/13 01:09:31;;;;;;;15.15;6.72;;;;;;;;;;5002217;28;20183;-67
2021/06/13 01:12:04;;;;;;;20.38;7.43;;;;;;;;;;4993523;28;20187;-67
2021/06/13 01:14:45;;;;;;;22.63;7.72;;;;;;;;;;5002738;28;20218;-67
2021/06/13 01:17:25;;;;;;;15.25;7.38;;;;;;;;;;4993932;28;20721;-67
2021/06/13 01:20:02;;;;;;;18.73;7.22;;;;;;;;;;5002423;28;20638;-67
2021/06/13 01:23:01;;;;;;;14.73;6.95;;;;;;;;;;4993527;28;20182;-67
2021/06/13 01:25:35;;;;;;;24.15;8.40;;;;;;;;;;5004332;28;20172;-67
2021/06/13 01:28:13;;;;;;;18.70;7.93;;;;;;;;;;4996381;28;20570;-67
2021/06/13 01:30:39;;;;;;;19.20;7.65;;;;;;;;;;5001617;28;20182;-67
2021/06/13 01:33:08;;;;;;;21.48;8.38;;;;;;;;;;4996414;28;20210;-67
2021/06/13 01:35:34;;;;;;;19.92;7.93;;;;;;;;;;5002389;28;20195;-67
2021/06/13 01:38:01;;;;;;;23.80;8.50;;;;;;;;;;4996032;28;20202;-67
2021/06/13 01:40:33;;;;;;;20.92;7.80;;;;;;;;;;5005006;28;20201;-66
2021/06/13 01:42:59;;;;;;;17.10;7.65;;;;;;;;;;4996499;28;20195;-66
2021/06/13 01:45:29;;;;;;;20.55;8.73;;;;;;;;;;5000334;28;20349;-66
2021/06/13 01:47:55;;;;;;;22.70;8.15;;;;;;;;;;4994926;28;20209;-66
2021/06/13 01:50:23;;;;;;;17.50;7.60;;;;;;;;;;4999928;28;20184;-66
2021/06/13 01:52:51;;;;;;;24.42;8.57;;;;;;;;;;4992734;28;20614;-66
2021/06/13 01:55:20;;;;;;;18.35;8.40;;;;;;;;;;5001084;28;20205;-66
2021/06/13 01:57:46;;;;;;;14.68;7.38;;;;;;;;;;5000725;28;20203;-66
2021/06/13 02:00:13;;;;;;;18.33;8.10;;;;;;;;;;4998791;28;20697;-67
2021/06/13 02:02:42;;;;;;;16.05;7.10;;;;;;;;;;4996531;28;20275;-66
2021/06/13 02:05:09;;;;;;;22.92;8.52;;;;;;;;;;4992901;28;20195;-66
2021/06/13 02:07:36;;;;;;;22.83;8.73;;;;;;;;;;5000823;28;20209;-66
2021/06/13 02:10:05;;;;;;;17.38;7.40;;;;;;;;;;4995852;28;20218;-66
2021/06/13 02:12:35;;;;;;;14.63;7.30;;;;;;;;;;5000906;28;20218;-66
2021/06/13 02:15:00;;;;;;;21.42;7.93;;;;;;;;;;4998023;28;20191;-66
2021/06/13 02:17:26;;;;;;;20.42;8.00;;;;;;;;;;4998498;28;20183;-67
2021/06/13 02:19:53;;;;;;;16.27;7.82;;;;;;;;;;5000275;28;20706;-66
2021/06/13 02:22:20;;;;;;;16.60;8.15;;;;;;;;;;5001103;28;20550;-67
2021/06/13 02:24:46;;;;;;;22.80;8.23;;;;;;;;;;4993760;28;20487;-66
2021/06/13 02:27:15;;;;;;;14.88;8.32;;;;;;;;;;4999769;28;20201;-66
2021/06/13 02:29:42;;;;;;;18.70;7.70;;;;;;;;;;4994580;28;20856;-66
2021/06/13 02:32:10;;;;;;;19.40;8.13;;;;;;;;;;5002677;28;20286;-66
2021/06/13 02:34:37;;;;;;;18.77;8.20;;;;;;;;;;5000938;28;20209;-67
2021/06/13 02:37:06;;;;;;;18.13;8.68;;;;;;;;;;4996213;28;20646;-66
2021/06/13 02:39:32;;;;;;;17.73;8.40;;;;;;;;;;4999757;28;20221;-66
2021/06/13 02:41:57;;;;;;;14.90;7.82;;;;;;;;;;4995686;28;20214;-66
2021/06/13 02:44:23;;;;;;;15.43;8.10;;;;;;;;;;4995850;28;20226;-66
2021/06/13 02:46:49;;;;;;;17.30;8.18;;;;;;;;;;4992670;28;20324;-66
2021/06/13 02:49:14;;;;;;;16.63;8.32;;;;;;;;;;5000365;28;20619;-67
2021/06/13 02:51:47;;;;;;;15.68;8.52;;;;;;;;;;4992055;28;20532;-66
2021/06/13 02:54:13;;;;;;;20.10;7.75;;;;;;;;;;4998216;28;20203;-67
2021/06/13 02:56:58;;;;;;;22.20;8.80;;;;;;;;;;4995048;28;21918;-67
2021/06/13 02:59:47;;;;;;;17.23;7.55;;;;;;;;;;4998032;28;20218;-67
2021/06/13 03:02:14;;;;;;;17.45;7.75;;;;;;;;;;4995517;28;20240;-67
2021/06/13 03:04:45;;;;;;;16.63;8.15;;;;;;;;;;4998974;28;20650;-67
2021/06/13 03:07:14;;;;;;;17.20;8.02;;;;;;;;;;4996221;28;20249;-67
2021/06/13 03:09:41;;;;;;;16.02;7.97;;;;;;;;;;4998027;28;20719;-67
2021/06/13 03:12:07;;;;;;;15.23;7.53;;;;;;;;;;4993963;28;20214;-67
2021/06/13 03:14:33;;;;;;;17.75;8.30;;;;;;;;;;5002458;28;20203;-67
2021/06/13 03:16:59;;;;;;;19.77;7.85;;;;;;;;;;4997121;28;20312;-67
2021/06/13 03:19:27;;;;;;;18.67;8.98;;;;;;;;;;5009220;28;20673;-67
2021/06/13 03:21:54;;;;;;;19.13;9.48;;;;;;;;;;4999751;28;20198;-67
2021/06/13 03:24:21;;;;;;;17.77;9.05;;;;;;;;;;4994046;28;20230;-67
2021/06/13 03:26:49;;;;;;;19.55;9.32;;;;;;;;;;5000497;28;20187;-67
2021/06/13 03:29:16;;;;;;;21.67;9.30;;;;;;;;;;4999696;28;20216;-67
2021/06/13 03:31:42;;;;;;;21.67;9.57;;;;;;;;;;5004027;28;20218;-67
2021/06/13 03:34:08;;;;;;;18.10;8.85;;;;;;;;;;4998507;28;20297;-67
2021/06/13 03:36:35;;;;;;;19.85;9.02;;;;;;;;;;5001883;28;20244;-67
2021/06/13 03:39:01;;;;;;;18.00;9.43;;;;;;;;;;4996032;28;21660;-69
2021/06/13 03:41:26;;;;;;;20.00;9.32;;;;;;;;;;5000190;28;20191;-66
2021/06/13 03:43:54;;;;;;;21.77;9.02;;;;;;;;;;5001050;28;20325;-66
2021/06/13 03:46:20;;;;;;;18.30;8.98;;;;;;;;;;5004019;28;20199;-65
2021/06/13 03:48:49;;;;;;;14.63;8.13;;;;;;;;;;5002178;28;20794;-66
2021/06/13 03:51:15;;;;;;;18.83;8.85;;;;;;;;;;5015497;28;20534;-66
2021/06/13 03:53:47;;;;;;;19.42;9.02;;;;;;;;;;5003336;28;20213;-66
2021/06/13 03:56:26;;;;;;;16.38;8.82;;;;;;;;;;5003482;28;20195;-66
2021/06/13 03:58:53;;;;;;;23.65;9.63;;;;;;;;;;5003212;28;20176;-66
2021/06/13 04:01:21;;;;;;;19.60;8.55;;;;;;;;;;4997825;28;20207;-66
2021/06/13 04:03:51;;;;;;;19.00;9.45;;;;;;;;;;5004167;28;20682;-66
2021/06/13 04:06:20;;;;;;;21.98;9.25;;;;;;;;;;4999211;28;20199;-66
2021/06/13 04:08:46;;;;;;;21.27;9.73;;;;;;;;;;4997838;28;20183;-66
2021/06/13 04:11:12;;;;;;;17.90;9.05;;;;;;;;;;4997743;28;20684;-66
2021/06/13 04:13:38;;;;;;;18.73;9.18;;;;;;;;;;5002028;28;20532;-66
2021/06/13 04:16:05;;;;;;;18.83;9.15;;;;;;;;;;4996109;28;20673;-66
2021/06/13 04:18:32;;;;;;;22.52;9.52;;;;;;;;;;5006568;28;20631;-66
2021/06/13 04:20:58;;;;;;;21.15;9.10;;;;;;;;;;4996757;28;20192;-66
2021/06/13 04:23:24;;;;;;;19.70;9.73;;;;;;;;;;5002544;28;20226;-66
2021/06/13 04:25:50;;;;;;;20.02;10.40;;;;;;;;;;4995188;28;20209;-66
2021/06/13 04:28:16;;;;;;;18.17;9.30;;;;;;;;;;5003871;28;20190;-66
2021/06/13 04:31:06;;;;;;;17.15;8.65;;;;;;;;;;4998889;28;20281;-67
2021/06/13 04:33:33;;;;;;;17.20;8.18;;;;;;;;;;5002337;28;21128;-67
2021/06/13 04:36:00;;;;;;;16.25;8.07;;;;;;;;;;4998949;28;20191;-67
2021/06/13 04:38:26;;;;;;;13.88;7.97;;;;;;;;;;4997352;28;20201;-67
2021/06/13 04:40:52;;;;;;;17.38;7.90;;;;;;;;;;5001834;28;20761;-67
2021/06/13 04:43:17;;;;;;;16.02;7.72;;;;;;;;;;4994847;28;20230;-67
2021/06/13 04:45:43;;;;;;;14.73;7.90;;;;;;;;;;5004679;28;20234;-67
2021/06/13 04:48:08;;;;;;;15.45;7.45;;;;;;;;;;4997208;28;20738;-67
2021/06/13 04:50:34;;;;;;;20.08;7.55;;;;;;;;;;4999952;28;20315;-67
2021/06/13 04:53:02;;;;;;;18.02;8.25;;;;;;;;;;4996849;28;20254;-67
2021/06/13 04:55:39;;;;;;;16.70;8.18;;;;;;;;;;4997672;28;20185;-67
2021/06/13 04:58:16;;;;;;;16.27;7.40;;;;;;;;;;4992992;28;20190;-67
2021/06/13 05:00:41;;;;;;;18.65;8.18;;;;;;;;;;4995259;28;20241;-67
2021/06/13 05:03:07;;;;;;;14.85;8.50;;;;;;;;;;4996592;28;20623;-67
2021/06/13 05:05:32;;;;;;;15.65;7.72;;;;;;;;;;5001835;28;20278;-67
2021/06/13 05:07:57;;;;;;;15.50;7.72;;;;;;;;;;4995696;28;20198;-67
2021/06/13 05:10:24;;;;;;;18.83;7.78;;;;;;;;;;4999774;28;20206;-67
2021/06/13 05:12:52;;;;;;;18.85;8.00;;;;;;;;;;4996390;28;20179;-67
2021/06/13 05:15:20;;;;;;;20.73;8.75;;;;;;;;;;4998809;28;20195;-67
2021/06/13 05:17:46;;;;;;;18.63;7.55;;;;;;;;;;5000777;28;20242;-67
2021/06/13 05:20:12;;;;;;;18.23;8.60;;;;;;;;;;4994031;28;20223;-67
2021/06/13 05:22:58;;;;;;;15.48;7.65;;;;;;;;;;5000715;28;20187;-67
2021/06/13 05:25:27;;;;;;;17.20;7.63;;;;;;;;;;4995588;28;20199;-67
2021/06/13 05:27:54;;;;;;;18.15;7.80;;;;;;;;;;5000923;28;20183;-67
2021/06/13 05:30:20;;;;;;;19.70;8.18;;;;;;;;;;4993460;28;20192;-67
2021/06/13 05:32:46;;;;;;;21.92;7.30;;;;;;;;;;5002687;28;20195;-67
2021/06/13 05:35:12;;;;;;;16.13;7.38;;;;;;;;;;4992053;28;20700;-66
2021/06/13 05:37:37;;;;;;;14.70;7.70;;;;;;;;;;5013571;28;20639;-66
2021/06/13 05:40:08;;;;;;;16.60;6.85;;;;;;;;;;4996740;28;20285;-66
2021/06/13 05:42:33;;;;;;;15.60;7.60;;;;;;;;;;5001083;28;20198;-67
2021/06/13 05:44:58;;;;;;;17.67;7.60;;;;;;;;;;4993467;28;20227;-67
2021/06/13 05:47:24;;;;;;;21.30;7.80;;;;;;;;;;5001156;28;20194;-67
2021/06/13 05:49:49;;;;;;;16.58;6.57;;;;;;;;;;4995497;28;20186;-68
2021/06/13 05:52:15;;;;;;;19.33;7.57;;;;;;;;;;5002592;28;20175;-67
2021/06/13 05:54:40;;;;;;;24.42;6.40;;;;;;;;;;5001501;28;20194;-68
2021/06/13 05:57:06;;;;;;;14.00;6.68;;;;;;;;;;4996431;28;20190;-68
2021/06/13 05:59:31;;;;;;;19.67;6.78;;;;;;;;;;5002310;28;20305;-68
2021/06/13 06:01:56;;;;;;;19.65;7.35;;;;;;;;;;4995481;28;20211;-68
2021/06/13 06:04:22;;;;;;;22.60;7.22;;;;;;;;;;4995107;28;20206;-67
2021/06/13 06:06:47;;;;;;;15.00;6.22;;;;;;;;;;4997332;28;20193;-68
2021/06/13 06:09:13;;;;;;;19.05;7.18;;;;;;;;;;5001783;28;20328;-68
2021/06/13 06:11:42;;;;;;;16.45;6.72;;;;;;;;;;4995573;28;20187;-69
2021/06/13 06:14:08;;;;;;;19.70;7.20;;;;;;;;;;4997794;28;20193;-67
2021/06/13 06:16:33;;;;;;;14.88;6.55;;;;;;;;;;4993856;28;20203;-67
2021/06/13 06:18:58;;;;;;;17.35;6.40;;;;;;;;;;4996717;28;20202;-68
2021/06/13 06:21:24;;;;;;;15.32;6.65;;;;;;;;;;4993815;28;20399;-67
2021/06/13 06:23:49;;;;;;;20.13;6.80;;;;;;;;;;4997382;28;20674;-68
2021/06/13 06:26:15;;;;;;;18.98;6.53;;;;;;;;;;5002173;28;20685;-68
2021/06/13 06:28:40;;;;;;;17.20;6.38;;;;;;;;;;4992088;28;20186;-68
2021/06/13 06:31:05;;;;;;;16.83;6.90;;;;;;;;;;4994096;28;20191;-67
2021/06/13 06:33:31;;;;;;;17.92;6.15;;;;;;;;;;4991605;28;20680;-67
2021/06/13 06:35:57;;;;;;;15.32;5.75;;;;;;;;;;4999321;28;20206;-67
2021/06/13 06:38:23;;;;;;;15.50;6.53;;;;;;;;;;4990419;28;20265;-66
2021/06/13 06:40:48;;;;;;;17.17;5.30;;;;;;;;;;4997536;28;20634;-68
2021/06/13 06:43:14;;;;;;;15.95;5.63;;;;;;;;;;4992397;28;20202;-68
2021/06/13 06:45:39;;;;;;;12.68;5.45;;;;;;;;;;5000693;28;20815;-68
2021/06/13 06:48:05;;;;;;;20.23;6.13;;;;;;;;;;4989134;28;20199;-68
2021/06/13 06:50:30;;;;;;;10.73;5.18;;;;;;;;;;4998697;28;20194;-67
2021/06/13 06:52:56;;;;;;;15.68;5.57;;;;;;;;;;4652706;28;9999775;-68
2021/06/13 06:55:21;;;;;;;16.30;5.97;;;;;;;;;;4991852;28;21588;-66
2021/06/13 06:57:48;;;;;;;16.88;5.82;;;;;;;;;;4997741;28;20190;-68
2021/06/13 07:00:16;;;;;;;17.23;6.13;;;;;;;;;;4992451;28;20226;-68
2021/06/13 07:02:43;;;;;;;17.15;5.97;;;;;;;;;;5003401;28;20218;-66
2021/06/13 07:05:09;;;;;;;16.85;6.63;;;;;;;;;;5001018;28;20654;-66
2021/06/13 07:07:35;;;;;;;14.15;5.53;;;;;;;;;;5002728;28;20190;-69
2021/06/13 07:10:00;;;;;;;12.13;5.40;;;;;;;;;;5000296;28;20194;-68
2021/06/13 07:12:26;;;;;;;12.45;4.78;;;;;;;;;;5003360;28;20274;-68
2021/06/13 07:14:52;;;;;;;13.35;5.68;;;;;;;;;;5003663;28;20194;-68
2021/06/13 07:17:17;;;;;;;15.90;5.43;;;;;;;;;;5007663;28;20206;-68
2021/06/13 07:19:43;;;;;;;13.50;5.00;;;;;;;;;;4994285;28;20186;-68
2021/06/13 07:22:08;;;;;;;12.60;5.13;;;;;;;;;;5003647;28;20741;-69
2021/06/13 07:24:33;;;;;;;12.30;5.22;;;;;;;;;;4996158;28;43673;-69
2021/06/13 07:26:59;;;;;;;11.63;4.82;;;;;;;;;;5007446;28;20297;-65
2021/06/13 07:29:24;;;;;;;12.45;4.22;;;;;;;;;;5007976;28;20260;-66
2021/06/13 07:31:50;;;;;;;13.27;5.45;;;;;;;;;;4998429;28;20191;-65
2021/06/13 07:34:16;;;;;;;10.93;4.82;;;;;;;;;;4995264;28;20204;-66
2021/06/13 07:36:42;;;;;;;11.55;4.05;;;;;;;;;;4997924;28;20186;-66
2021/06/13 07:39:07;;;;;;;13.80;5.10;;;;;;;;;;5007354;28;20197;-66
2021/06/13 07:41:32;;;;;;;14.00;4.80;;;;;;;;;;4994925;28;20660;-66
2021/06/13 07:43:58;;;;;;;14.02;5.18;;;;;;;;;;4999262;28;20207;-68
2021/06/13 07:46:23;;;;;;;16.05;5.93;;;;;;;;;;5000943;28;20243;-67
2021/06/13 07:48:49;;;;;;;17.13;5.43;;;;;;;;;;5005106;28;20984;-67
2021/06/13 07:51:14;;;;;;;22.58;4.88;;;;;;;;;;4996294;28;20206;-67
2021/06/13 07:53:43;;;;;;;14.82;4.97;;;;;;;;;;5002976;28;20180;-67
2021/06/13 07:56:13;;;;;;;10.23;4.60;;;;;;;;;;4997417;28;20293;-68
2021/06/13 07:58:39;;;;;;;9.77;4.47;;;;;;;;;;5003086;28;20539;-68
2021/06/13 08:01:04;;;;;;;10.70;4.65;;;;;;;;;;5003588;28;20218;-66
2021/06/13 08:03:30;;;;;;;12.55;4.70;;;;;;;;;;4998521;28;20202;-67
2021/06/13 08:05:55;;;;;;;15.07;4.70;;;;;;;;;;5004162;28;20541;-67
2021/06/13 08:08:20;;;;;;;13.90;5.50;;;;;;;;;;4998090;28;20294;-66
2021/06/13 08:10:46;;;;;;;12.65;4.80;;;;;;;;;;5003839;28;20195;-67
2021/06/13 08:13:13;;;;;;;14.98;4.60;;;;;;;;;;4997712;28;20512;-68
2021/06/13 08:15:39;;;;;;;11.88;4.45;;;;;;;;;;4998928;28;20250;-65
2021/06/13 08:18:05;;;;;;;10.68;4.50;;;;;;;;;;5000574;28;20190;-69
2021/06/13 08:20:30;;;;;;;12.43;4.97;;;;;;;;;;4999288;28;20217;-68
2021/06/13 08:22:56;;;;;;;10.88;4.70;;;;;;;;;;4996573;28;20226;-66
2021/06/13 08:25:21;;;;;;;11.73;4.65;;;;;;;;;;4652593;28;10000128;-66
2021/06/13 08:27:47;;;;;;;8.93;4.13;;;;;;;;;;4995834;28;20195;-66
2021/06/13 08:30:14;;;;;;;12.80;4.97;;;;;;;;;;4997673;28;20266;-68
2021/06/13 08:32:40;;;;;;;12.85;4.60;;;;;;;;;;4995935;28;20693;-68
2021/06/13 08:35:07;;;;;;;9.48;4.68;;;;;;;;;;4999092;28;20656;-68
2021/06/13 08:37:33;;;;;;;11.85;4.65;;;;;;;;;;5000537;28;20197;-69
2021/06/13 08:39:58;;;;;;;10.48;4.20;;;;;;;;;;5000744;28;20187;-67
2021/06/13 08:42:24;;;;;;;13.02;4.80;;;;;;;;;;5004073;28;20202;-66
2021/06/13 08:44:51;;;;;;;10.15;4.13;;;;;;;;;;4998746;28;20313;-66
2021/06/13 08:47:18;;;;;;;9.73;4.20;;;;;;;;;;5003437;28;20659;-67
2021/06/13 08:49:45;;;;;;;12.52;4.68;;;;;;;;;;4999043;28;20194;-69
2021/06/13 08:52:11;;;;;;;11.85;5.15;;;;;;;;;;5006528;28;20186;-67
2021/06/13 08:54:38;;;;;;;9.57;3.88;;;;;;;;;;4999431;28;21262;-67
2021/06/13 08:57:04;;;;;;;9.65;4.22;;;;;;;;;;5008023;28;20202;-66
2021/06/13 08:59:29;;;;;;;10.73;4.22;;;;;;;;;;5000627;28;20190;-66
2021/06/13 09:01:56;;;;;;;11.82;4.95;;;;;;;;;;5005006;28;20202;-67
2021/06/13 09:04:22;;;;;;;10.27;4.35;;;;;;;;;;5000920;28;20669;-65
2021/06/13 09:06:47;;;;;;;10.70;4.80;;;;;;;;;;5009285;28;20199;-69
2021/06/13 09:09:26;;;;;;;12.50;4.35;;;;;;;;;;5003323;28;20188;-70
2021/06/13 09:12:03;;;;;;;12.32;5.13;;;;;;;;;;5002896;28;20193;-68
2021/06/13 09:14:29;;;;;;;11.68;4.82;;;;;;;;;;5000110;28;20902;-68
2021/06/13 09:16:56;;;;;;;13.13;5.05;;;;;;;;;;4997705;28;20194;-69
2021/06/13 09:19:21;;;;;;;16.77;5.15;;;;;;;;;;4999279;28;20183;-69
2021/06/13 09:21:47;;;;;;;14.95;5.07;;;;;;;;;;4996268;28;20210;-66
2021/06/13 09:24:17;;;;;;;12.88;4.82;;;;;;;;;;5000264;28;20267;-68
2021/06/13 09:26:42;;;;;;;13.50;5.20;;;;;;;;;;4996660;28;20197;-66
2021/06/13 09:29:08;;;;;;;11.48;5.38;;;;;;;;;;5002260;28;20187;-69
2021/06/13 09:31:36;;;;;;;10.98;5.10;;;;;;;;;;4998921;28;20226;-69
2021/06/13 09:34:01;;;;;;;11.25;4.85;;;;;;;;;;5003419;28;20194;-69
2021/06/13 09:36:30;;;;;;;11.50;5.10;;;;;;;;;;4994514;28;20187;-69
2021/06/13 09:39:01;;;;;;;10.60;5.57;;;;;;;;;;5006155;28;20672;-69
2021/06/13 09:41:27;;;;;;;15.18;4.35;;;;;;;;;;4996353;28;20589;-70
2021/06/13 09:44:00;;;;;;;15.35;5.03;;;;;;;;;;5001257;28;20233;-69
2021/06/13 09:46:28;;;;;;;18.33;6.18;;;;;;;;;;4997005;28;20235;-69
2021/06/13 09:49:02;;;;;;;12.98;4.95;;;;;;;;;;5002397;28;20187;-67
2021/06/13 09:51:33;;;;;;;12.85;5.15;;;;;;;;;;5004088;28;20187;-68
2021/06/13 09:54:00;;;;;;;12.02;4.57;;;;;;;;;;5002250;28;20232;-69
2021/06/13 09:56:32;;;;;;;9.02;4.50;;;;;;;;;;5007602;28;20845;-69
2021/06/13 09:59:02;;;;;;;13.15;4.80;;;;;;;;;;5000216;28;20656;-68
2021/06/13 10:01:59;;;;;;;9.75;4.68;;;;;;;;;;5009079;28;20293;-66
2021/06/13 10:04:28;;;;;;;10.18;4.63;;;;;;;;;;4999427;28;20222;-70
2021/06/13 10:07:07;;;;;;;11.38;4.90;;;;;;;;;;5011751;28;20739;-68
2021/06/13 10:09:37;;;;;;;11.55;4.35;;;;;;;;;;4998515;28;20599;-69
2021/06/13 10:12:06;;;;;;;9.13;4.40;;;;;;;;;;5008643;28;20241;-69
2021/06/13 10:14:31;;;;;;;19.63;4.63;;;;;;;;;;5000843;28;20206;-70
2021/06/13 10:16:56;;;;;;;11.77;4.78;;;;;;;;;;5002975;28;20183;-68
2021/06/13 10:19:24;;;;;;;11.77;5.22;;;;;;;;;;5001124;28;20183;-70
2021/06/13 10:21:52;;;;;;;10.10;5.07;;;;;;;;;;5005461;28;20531;-69
2021/06/13 10:24:24;;;;;;;14.32;4.97;;;;;;;;;;4999244;28;20211;-67
2021/06/13 10:26:52;;;;;;;13.68;5.32;;;;;;;;;;5008643;28;20241;-67
2021/06/13 10:29:19;;;;;;;10.13;4.93;;;;;;;;;;4996334;28;20197;-70
2021/06/13 10:31:46;;;;;;;9.38;4.55;;;;;;;;;;4660829;28;10000611;-68
2021/06/13 10:34:14;;;;;;;11.30;5.32;;;;;;;;;;4994558;28;20923;-69
2021/06/13 10:36:41;;;;;;;9.65;4.65;;;;;;;;;;5005986;28;20274;-67
2021/06/13 10:39:11;;;;;;;12.35;4.82;;;;;;;;;;4999551;28;20195;-66
2021/06/13 10:41:36;;;;;;;12.38;4.50;;;;;;;;;;4998572;28;20209;-69
2021/06/13 10:44:14;;;;;;;8.27;4.68;;;;;;;;;;4991609;28;21129;-69
2021/06/13 10:46:43;;;;;;;8.90;4.60;;;;;;;;;;4996955;28;20321;-70
2021/06/13 10:49:28;;;;;;;9.02;4.30;;;;;;;;;;4996170;28;20256;-67
2021/06/13 10:52:17;;;;;;;8.95;4.13;;;;;;;;;;4999860;28;20237;-67
2021/06/13 10:54:54;;;;;;;8.40;3.90;;;;;;;;;;4992370;28;20193;-69
2021/06/13 10:57:19;;;;;;;9.27;4.32;;;;;;;;;;4995426;28;20240;-71
2021/06/13 10:59:50;;;;;;;10.07;4.75;;;;;;;;;;4994738;28;20638;-69
2021/06/13 11:02:19;;;;;;;9.23;4.03;;;;;;;;;;4996225;28;20207;-69
2021/06/13 11:04:46;;;;;;;11.98;4.40;;;;;;;;;;5000302;28;20340;-68
2021/06/13 11:07:35;;;;;;;10.68;4.40;;;;;;;;;;4995293;28;20237;-70
2021/06/13 11:10:07;;;;;;;8.75;4.18;;;;;;;;;;4997618;28;20591;-68
2021/06/13 11:12:49;;;;;;;10.18;4.45;;;;;;;;;;4998779;28;20283;-72
2021/06/13 11:15:38;;;;;;;11.63;4.72;;;;;;;;;;5001952;28;20541;-67
2021/06/13 11:18:18;;;;;;;13.05;4.55;;;;;;;;;;4997398;28;20263;-68
2021/06/13 11:21:10;;;;;;;10.48;4.93;;;;;;;;;;4997526;28;20233;-69
2021/06/13 11:23:36;;;;;;;8.25;4.60;;;;;;;;;;4994993;28;20322;-69
2021/06/13 11:26:03;;;;;;;9.55;4.18;;;;;;;;;;5001753;28;20186;-68
2021/06/13 11:28:49;;;;;;;8.68;4.30;;;;;;;;;;4994644;28;20203;-69
2021/06/13 11:31:14;;;;;;;10.00;4.05;;;;;;;;;;4999208;28;20269;-66
2021/06/13 11:33:48;;;;;;;9.52;5.13;;;;;;;;;;4989666;28;20204;-65
2021/06/13 11:36:17;;;;;;;7.65;4.30;;;;;;;;;;4999681;28;20197;-66
2021/06/13 11:38:50;;;;;;;11.70;4.60;;;;;;;;;;4991957;28;20290;-66
2021/06/13 11:41:29;;;;;;;10.23;4.10;;;;;;;;;;4652364;28;10000377;-65
2021/06/13 11:43:56;;;;;;;10.73;4.53;;;;;;;;;;4992659;28;20306;-67
2021/06/13 11:46:30;;;;;;;8.60;4.07;;;;;;;;;;4992454;28;20891;-68
2021/06/13 11:48:56;;;;;;;12.27;5.22;;;;;;;;;;4993647;28;20194;-69
2021/06/13 11:51:21;;;;;;;9.32;4.70;;;;;;;;;;5000347;28;20202;-66
2021/06/13 11:54:00;;;;;;;11.38;4.65;;;;;;;;;;4995915;28;20547;-68
2021/06/13 11:56:31;;;;;;;7.95;3.97;;;;;;;;;;5001897;28;21610;-67
2021/06/13 11:59:08;;;;;;;11.45;4.80;;;;;;;;;;4995790;28;20282;-69
2021/06/13 12:01:36;;;;;;;13.45;4.97;;;;;;;;;;5003533;28;20701;-67
2021/06/13 12:04:03;;;;;;;9.32;5.10;;;;;;;;;;5001664;28;20264;-67
2021/06/13 12:06:28;;;;;;;10.35;4.50;;;;;;;;;;5004353;28;20308;-70
2021/06/13 12:08:54;;;;;;;10.95;5.25;;;;;;;;;;5006317;28;20191;-70
2021/06/13 12:11:30;;;;;;;10.80;4.60;;;;;;;;;;5003549;28;20199;-71
2021/06/13 12:13:55;;;;;;;10.57;4.15;;;;;;;;;;5001367;28;20642;-70
2021/06/13 12:16:21;;;;;;;7.85;4.65;;;;;;;;;;5004915;28;20194;-69
2021/06/13 12:19:04;;;;;;;12.25;4.72;;;;;;;;;;4997550;28;20585;-69
2021/06/13 12:21:30;;;;;;;10.57;4.60;;;;;;;;;;5001566;28;20258;-67
2021/06/13 12:24:05;;;;;;;7.88;4.15;;;;;;;;;;5005695;28;20202;-67
2021/06/13 12:29:26;;;;;;;8.13;4.00;;;;;;;;;;4997839;28;20193;-66
2021/06/13 12:32:09;;;;;;;8.63;4.15;;;;;;;;;;5004257;28;21771;-66
2021/06/13 12:34:35;;;;;;;9.48;3.83;;;;;;;;;;4995622;28;20337;-67
2021/06/13 12:37:00;;;;;;;6.70;3.97;;;;;;;;;;5001687;28;20266;-65
2021/06/13 12:39:30;;;;;;;6.95;3.83;;;;;;;;;;4997375;28;20183;-66
2021/06/13 12:42:14;;;;;;;9.30;4.13;;;;;;;;;;4996365;28;20471;-66
2021/06/13 12:44:40;;;;;;;9.77;4.18;;;;;;;;;;5004165;28;20211;-70
2021/06/13 12:47:07;;;;;;;7.63;3.80;;;;;;;;;;4996921;28;20506;-66
2021/06/13 12:49:43;;;;;;;7.68;4.43;;;;;;;;;;5003180;28;20195;-65
2021/06/13 12:52:18;;;;;;;11.98;4.43;;;;;;;;;;4997390;28;20187;-67
2021/06/13 12:54:52;;;;;;;14.40;5.13;;;;;;;;;;5005364;28;20201;-67
2021/06/13 12:57:19;;;;;;;7.80;4.15;;;;;;;;;;4997728;28;20738;-68
2021/06/13 12:59:45;;;;;;;10.30;3.90;;;;;;;;;;5003434;28;21181;-66
2021/06/13 13:02:10;;;;;;;7.80;3.53;;;;;;;;;;4991496;28;20257;-67
2021/06/13 13:04:44;;;;;;;8.55;3.65;;;;;;;;;;5001368;28;20230;-70
2021/06/13 13:07:10;;;;;;;9.73;4.25;;;;;;;;;;4998111;28;20249;-69
2021/06/13 13:09:56;;;;;;;6.70;4.15;;;;;;;;;;5002927;28;20183;-67
2021/06/13 13:12:21;;;;;;;12.43;3.88;;;;;;;;;;4998287;28;22626;-68
2021/06/13 13:14:46;;;;;;;7.90;3.75;;;;;;;;;;5008558;28;20237;-70
2021/06/13 13:17:25;;;;;;;9.30;4.28;;;;;;;;;;5000376;28;20686;-70
2021/06/13 13:19:50;;;;;;;9.48;3.63;;;;;;;;;;5018834;28;20253;-67
2021/06/13 13:22:17;;;;;;;6.90;3.83;;;;;;;;;;4998753;28;27743;-68
2021/06/13 13:24:42;;;;;;;5.78;3.25;;;;;;;;;;5001185;28;20207;-68
2021/06/13 13:27:09;;;;;;;9.75;4.15;;;;;;;;;;4997613;28;20183;-69
2021/06/13 13:29:48;;;;;;;7.18;4.13;;;;;;;;;;5001916;28;20187;-70
2021/06/13 13:32:15;;;;;;;7.95;4.03;;;;;;;;;;5001976;28;20243;-70
2021/06/13 13:34:40;;;;;;;9.10;4.30;;;;;;;;;;4995101;28;20262;-67
2021/06/13 13:37:14;;;;;;;8.82;4.28;;;;;;;;;;4999679;28;20293;-69
2021/06/13 13:39:41;;;;;;;7.35;4.13;;;;;;;;;;4996576;28;20187;-68
2021/06/13 13:42:09;;;;;;;8.27;3.95;;;;;;;;;;4999369;28;20245;-70
2021/06/13 13:44:36;;;;;;;10.98;3.78;;;;;;;;;;4997641;28;25159;-70
2021/06/13 13:47:10;;;;;;;9.20;3.78;;;;;;;;;;5000081;28;20244;-70
2021/06/13 13:49:37;;;;;;;6.45;3.92;;;;;;;;;;4996493;28;20218;-69
2021/06/13 13:52:04;;;;;;;7.20;3.78;;;;;;;;;;4996161;28;20201;-71
2021/06/13 13:54:36;;;;;;;10.23;3.90;;;;;;;;;;4993378;28;20243;-67
2021/06/13 13:57:04;;;;;;;8.15;3.83;;;;;;;;;;4994678;28;20259;-67
2021/06/13 13:59:31;;;;;;;5.47;3.50;;;;;;;;;;4996298;28;20267;-66
2021/06/13 14:01:57;;;;;;;7.13;3.80;;;;;;;;;;4999509;28;20272;-68
2021/06/13 14:04:23;;;;;;;8.10;3.97;;;;;;;;;;4997450;28;20218;-68
2021/06/13 14:06:50;;;;;;;10.52;4.10;;;;;;;;;;5003716;28;20198;-68
2021/06/13 14:09:16;;;;;;;5.93;3.83;;;;;;;;;;4995088;28;20577;-68
2021/06/13 14:11:41;;;;;;;9.57;4.05;;;;;;;;;;4998588;28;20280;-68
2021/06/13 14:14:07;;;;;;;7.32;3.55;;;;;;;;;;4999329;28;20191;-69
2021/06/13 14:16:32;;;;;;;6.32;4.10;;;;;;;;;;4993306;28;20719;-69
2021/06/13 14:18:58;;;;;;;8.98;3.85;;;;;;;;;;5001909;28;20245;-69
2021/06/13 14:21:24;;;;;;;6.93;3.92;;;;;;;;;;4993218;28;22757;-69
2021/06/13 14:23:49;;;;;;;8.20;4.22;;;;;;;;;;4998507;28;20199;-70
2021/06/13 14:26:15;;;;;;;7.65;3.58;;;;;;;;;;4991803;28;20638;-69
2021/06/13 14:28:40;;;;;;;7.88;4.15;;;;;;;;;;4997298;28;20340;-70
2021/06/13 14:31:06;;;;;;;6.50;3.88;;;;;;;;;;4987927;28;20191;-70
2021/06/13 14:33:32;;;;;;;7.22;4.28;;;;;;;;;;5001489;28;20206;-69
2021/06/13 14:35:57;;;;;;;7.97;4.05;;;;;;;;;;4995969;28;20625;-66
2021/06/13 14:38:23;;;;;;;8.80;4.00;;;;;;;;;;4998622;28;20190;-67
2021/06/13 14:40:48;;;;;;;9.48;3.47;;;;;;;;;;4994915;28;20182;-68
2021/06/13 14:43:15;;;;;;;9.00;3.95;;;;;;;;;;4993265;28;20605;-67